Time;durP1;ratioP1;P1;durP2;ratioP2;P2;SDS_P1;SDS_P2;PMS_P1;PMS_P2;Temp;Humidity;BMP_temperature;BMP_pressure;BME280_temperature;BME280_humidity;BME280_pressure;Samples;Min_cycle;Max_cycle;Signal;HPM_P1;HPM_P2
2023/01/27 00:00:15;;;;;;;9.32;2.70;;;6.40;99.90;;;;;;4975713;28;20217;-54
2023/01/27 00:02:42;;;;;;;9.77;2.60;;;6.30;99.90;;;;;;4976806;28;20177;-56
2023/01/27 00:05:09;;;;;;;13.00;2.63;;;6.30;99.90;;;;;;4976837;28;20196;-53
2023/01/27 00:07:35;;;;;;;8.85;2.53;;;6.40;99.90;;;;;;4976602;28;20190;-55
2023/01/27 00:10:01;;;;;;;13.32;2.95;;;6.30;99.90;;;;;;4976930;28;20265;-51
2023/01/27 00:15:13;;;;;;;12.90;2.60;;;6.30;99.90;;;;;;4976944;28;20224;-54
2023/01/27 00:17:39;;;;;;;13.30;2.58;;;6.30;99.90;;;;;;4976427;28;20212;-54
2023/01/27 00:20:06;;;;;;;14.15;3.00;;;6.30;99.90;;;;;;4976440;28;20650;-52
2023/01/27 00:25:16;;;;;;;13.63;2.75;;;6.30;99.90;;;;;;4976518;28;20284;-53
2023/01/27 00:27:42;;;;;;;10.50;2.53;;;6.30;99.90;;;;;;4976441;28;20200;-53
2023/01/27 00:30:09;;;;;;;13.68;3.75;;;6.30;99.90;;;;;;4976301;28;20624;-53
2023/01/27 00:35:18;;;;;;;15.75;3.58;;;6.20;99.90;;;;;;4976599;28;20243;-54
2023/01/27 00:37:45;;;;;;;13.68;2.95;;;6.20;99.90;;;;;;4976266;28;20610;-54
2023/01/27 00:40:13;;;;;;;17.20;3.80;;;6.20;99.90;;;;;;4976294;28;20182;-54
2023/01/27 00:42:39;;;;;;;14.57;3.15;;;6.20;99.90;;;;;;4976110;28;20189;-52
2023/01/27 00:47:50;;;;;;;12.02;2.92;;;6.20;99.90;;;;;;4975485;28;20196;-53
2023/01/27 00:50:16;;;;;;;14.73;2.28;;;6.20;99.90;;;;;;4976056;28;20200;-54
2023/01/27 00:52:43;;;;;;;11.55;2.50;;;6.20;99.90;;;;;;4975971;28;20169;-53
2023/01/27 00:55:09;;;;;;;13.57;2.85;;;6.20;99.90;;;;;;4975994;28;20184;-54
2023/01/27 00:57:36;;;;;;;15.13;3.17;;;6.20;99.90;;;;;;4975654;28;20217;-53
2023/01/27 01:00:03;;;;;;;10.98;3.03;;;6.20;99.90;;;;;;4976239;28;20638;-55
2023/01/27 01:02:28;;;;;;;15.13;3.17;;;6.10;99.90;;;;;;4974743;28;20181;-55
2023/01/27 01:04:54;;;;;;;13.18;2.83;;;6.20;99.90;;;;;;4975806;28;20182;-51
2023/01/27 01:07:20;;;;;;;12.25;3.05;;;6.20;99.90;;;;;;4975657;28;20177;-55
2023/01/27 01:09:45;;;;;;;12.45;2.80;;;6.20;99.90;;;;;;4975840;28;20182;-55
2023/01/27 01:12:11;;;;;;;9.80;3.03;;;6.20;99.90;;;;;;4974315;28;20174;-54
2023/01/27 01:14:37;;;;;;;12.57;2.80;;;6.20;99.90;;;;;;4975745;28;20650;-54
2023/01/27 01:17:02;;;;;;;9.70;3.28;;;6.20;99.90;;;;;;4975538;28;20219;-53
2023/01/27 01:19:30;;;;;;;10.77;3.03;;;6.20;99.90;;;;;;4975593;28;20204;-52
2023/01/27 01:21:55;;;;;;;10.40;2.72;;;6.30;99.90;;;;;;4975425;28;20235;-53
2023/01/27 01:24:21;;;;;;;8.23;3.00;;;6.30;99.90;;;;;;4975544;28;20294;-52
2023/01/27 01:26:47;;;;;;;8.80;2.60;;;6.30;99.90;;;;;;4975214;28;20180;-55
2023/01/27 01:29:12;;;;;;;7.85;2.78;;;6.40;99.90;;;;;;4975502;28;20184;-53
2023/01/27 01:31:38;;;;;;;12.30;3.20;;;6.40;99.90;;;;;;4975330;28;20234;-53
2023/01/27 01:34:04;;;;;;;11.93;3.20;;;6.40;99.90;;;;;;4975295;28;20177;-51
2023/01/27 01:36:29;;;;;;;8.10;2.97;;;6.40;99.90;;;;;;4975186;28;20181;-54
2023/01/27 01:38:55;;;;;;;10.88;3.03;;;6.40;99.90;;;;;;4975084;28;20260;-54
2023/01/27 01:41:22;;;;;;;7.25;2.47;;;6.40;99.90;;;;;;4974984;28;20185;-55
2023/01/27 01:43:49;;;;;;;12.10;3.42;;;6.40;99.90;;;;;;4975297;28;20527;-54
2023/01/27 01:46:15;;;;;;;9.50;3.53;;;6.30;99.90;;;;;;4975159;28;20177;-52
2023/01/27 01:48:58;;;;;;;8.48;3.15;;;6.40;99.90;;;;;;4975042;28;20188;-55
2023/01/27 01:51:38;;;;;;;8.38;3.13;;;6.30;99.90;;;;;;4975001;28;20236;-52
2023/01/27 01:54:25;;;;;;;8.68;2.80;;;6.40;99.90;;;;;;4974797;28;20625;-51
2023/01/27 01:56:59;;;;;;;11.25;2.53;;;6.30;99.90;;;;;;4974925;28;20198;-52
2023/01/27 01:59:30;;;;;;;7.88;2.80;;;6.30;99.90;;;;;;4974797;28;20177;-51
2023/01/27 02:02:00;;;;;;;14.25;3.78;;;6.40;99.90;;;;;;4974836;28;20184;-55
2023/01/27 02:04:31;;;;;;;12.07;3.22;;;6.40;99.90;;;;;;4974883;28;20178;-51
2023/01/27 02:07:48;;;;;;;8.70;2.67;;;6.50;99.90;;;;;;4976084;28;20177;-54
2023/01/27 02:10:14;;;;;;;11.48;3.13;;;6.40;99.90;;;;;;4953184;28;20585;-54
2023/01/27 02:12:39;;;;;;;12.27;3.15;;;6.40;99.90;;;;;;4993913;28;20184;-54
2023/01/27 02:15:06;;;;;;;10.63;2.65;;;6.30;99.90;;;;;;4994148;28;20185;-54
2023/01/27 02:17:32;;;;;;;12.45;3.22;;;6.30;99.90;;;;;;4993948;28;20216;-54
2023/01/27 02:20:16;;;;;;;8.07;2.58;;;6.30;99.90;;;;;;4993989;28;20822;-53
2023/01/27 02:22:57;;;;;;;8.05;2.90;;;6.40;99.90;;;;;;4993900;28;20543;-52
2023/01/27 02:25:43;;;;;;;8.90;3.00;;;6.30;99.90;;;;;;4994335;28;20195;-54
2023/01/27 02:28:09;;;;;;;5.95;2.60;;;6.30;99.90;;;;;;4993987;28;20724;-54
2023/01/27 02:30:35;;;;;;;10.73;3.33;;;6.30;99.90;;;;;;4993704;28;20255;-54
2023/01/27 02:33:00;;;;;;;5.68;2.40;;;6.30;99.90;;;;;;4993769;28;20173;-54
2023/01/27 02:35:34;;;;;;;7.78;2.83;;;6.30;99.90;;;;;;4993702;28;20687;-54
2023/01/27 02:38:00;;;;;;;9.63;3.15;;;6.20;99.90;;;;;;4993862;28;20215;-54
2023/01/27 02:40:28;;;;;;;10.70;2.78;;;6.10;99.90;;;;;;4993947;28;20176;-52
2023/01/27 02:42:56;;;;;;;11.15;2.78;;;6.10;99.90;;;;;;4993969;28;20230;-54
2023/01/27 02:45:22;;;;;;;12.32;2.55;;;6.20;99.90;;;;;;4993743;28;20177;-54
2023/01/27 02:47:47;;;;;;;10.05;2.42;;;6.30;99.90;;;;;;4993717;28;20191;-54
2023/01/27 02:50:13;;;;;;;7.10;2.45;;;6.10;99.90;;;;;;4993555;28;20172;-54
2023/01/27 02:52:39;;;;;;;8.77;2.10;;;6.10;99.90;;;;;;4993806;28;20176;-53
2023/01/27 02:55:05;;;;;;;7.18;2.30;;;6.10;99.90;;;;;;4993737;28;20230;-55
2023/01/27 02:57:31;;;;;;;6.75;2.20;;;6.10;99.90;;;;;;4993702;28;20205;-55
2023/01/27 02:59:57;;;;;;;8.35;2.55;;;6.10;99.90;;;;;;4993763;28;20183;-52
2023/01/27 03:02:29;;;;;;;8.60;2.58;;;6.00;99.90;;;;;;4993431;28;20180;-54
2023/01/27 03:04:58;;;;;;;6.05;2.20;;;6.10;99.90;;;;;;4993500;28;20604;-54
2023/01/27 03:07:23;;;;;;;5.47;2.00;;;6.00;99.90;;;;;;4993597;28;20600;-53
2023/01/27 03:09:49;;;;;;;5.93;1.88;;;6.00;99.90;;;;;;4993662;28;20273;-54
2023/01/27 03:12:20;;;;;;;6.65;2.03;;;6.00;99.90;;;;;;4997145;28;20252;-51
2023/01/27 03:20:17;;;;;;;5.05;2.38;;;5.80;99.90;;;;;;4997373;28;20192;-54
2023/01/27 03:22:42;;;;;;;8.23;2.38;;;5.80;99.90;;;;;;4996958;28;20580;-54
2023/01/27 03:25:08;;;;;;;5.95;2.33;;;5.70;99.90;;;;;;4996850;28;20200;-53
2023/01/27 03:27:34;;;;;;;5.75;1.80;;;5.70;99.90;;;;;;4997041;28;20239;-54
2023/01/27 03:30:00;;;;;;;6.22;2.00;;;5.80;99.90;;;;;;4996761;28;20184;-52
2023/01/27 03:32:28;;;;;;;6.30;2.35;;;5.70;99.90;;;;;;4997037;28;20589;-54
2023/01/27 03:34:57;;;;;;;6.07;2.17;;;5.80;99.90;;;;;;4997516;28;20183;-53
2023/01/27 03:48:22;;;;;;;6.30;2.50;;;5.80;99.90;;;;;;4996972;28;20199;-54
2023/01/27 03:50:57;;;;;;;5.70;2.00;;;5.80;99.90;;;;;;4996542;28;20177;-53
2023/01/27 03:53:22;;;;;;;7.00;2.70;;;5.80;99.90;;;;;;4996741;28;20707;-53
2023/01/27 03:55:48;;;;;;;5.55;2.88;;;5.70;99.90;;;;;;4996582;28;20176;-53
2023/01/27 03:58:28;;;;;;;6.97;2.78;;;5.70;99.90;;;;;;4996390;28;20248;-53
2023/01/27 04:00:55;;;;;;;7.45;2.95;;;5.80;99.90;;;;;;4996327;28;20538;-54
2023/01/27 04:08:59;;;;;;;7.53;3.20;;;5.80;99.90;;;;;;4996223;28;20276;-53
2023/01/27 04:14:10;;;;;;;7.68;3.70;;;5.70;99.90;;;;;;4996275;28;20247;-53
2023/01/27 04:16:37;;;;;;;8.18;3.80;;;5.80;99.90;;;;;;4996029;28;20177;-53
2023/01/27 04:19:06;;;;;;;7.88;3.80;;;5.70;99.90;;;;;;4996130;28;20184;-53
2023/01/27 04:21:32;;;;;;;8.32;3.97;;;5.70;99.90;;;;;;4995505;28;20268;-54
2023/01/27 04:23:58;;;;;;;7.70;4.35;;;5.70;99.90;;;;;;4995307;28;20196;-53
2023/01/27 04:26:25;;;;;;;10.38;4.40;;;5.70;99.90;;;;;;4996148;28;20709;-54
2023/01/27 04:28:51;;;;;;;8.20;4.85;;;5.70;99.90;;;;;;4996026;28;20223;-54
2023/01/27 04:31:17;;;;;;;8.10;4.07;;;5.50;99.90;;;;;;4996110;28;20595;-52
2023/01/27 04:33:44;;;;;;;6.32;3.80;;;5.50;99.90;;;;;;4995780;28;20191;-53
2023/01/27 04:36:14;;;;;;;9.55;4.53;;;5.60;99.90;;;;;;4995816;28;20188;-53
2023/01/27 04:38:40;;;;;;;7.05;4.45;;;5.50;99.90;;;;;;4995497;28;20208;-58
2023/01/27 04:41:05;;;;;;;8.15;4.28;;;5.40;99.90;;;;;;4995815;28;20174;-55
2023/01/27 04:43:31;;;;;;;8.25;4.70;;;5.40;99.90;;;;;;4995816;28;20625;-55
2023/01/27 04:45:57;;;;;;;10.10;5.70;;;5.40;99.90;;;;;;4995650;28;20188;-54
2023/01/27 04:48:22;;;;;;;7.82;5.10;;;5.30;99.90;;;;;;4995632;28;20200;-55
2023/01/27 04:50:48;;;;;;;8.32;4.80;;;5.20;99.90;;;;;;4995358;28;20180;-54
2023/01/27 04:53:14;;;;;;;5.43;4.60;;;5.20;99.90;;;;;;4995328;28;20177;-53
2023/01/27 04:55:45;;;;;;;10.88;5.63;;;5.20;99.90;;;;;;4995509;28;20533;-55
2023/01/27 04:58:12;;;;;;;7.05;4.75;;;5.10;99.90;;;;;;4995386;28;20299;-53
2023/01/27 05:00:38;;;;;;;9.82;5.22;;;5.20;99.90;;;;;;4995321;28;20180;-53
2023/01/27 05:03:04;;;;;;;7.38;5.30;;;5.10;99.90;;;;;;4994086;28;20185;-52
2023/01/27 05:05:31;;;;;;;9.50;5.13;;;5.10;99.90;;;;;;4995158;28;20307;-54
2023/01/27 05:08:02;;;;;;;10.40;5.82;;;5.10;99.90;;;;;;4995161;28;20184;-52
2023/01/27 05:10:28;;;;;;;9.82;5.80;;;5.00;99.90;;;;;;4995342;28;20635;-53
2023/01/27 05:12:53;;;;;;;12.13;5.72;;;5.10;99.90;;;;;;4995351;28;20188;-55
2023/01/27 05:15:19;;;;;;;10.32;6.25;;;5.10;99.90;;;;;;4995168;28;20189;-53
2023/01/27 05:17:45;;;;;;;9.93;6.22;;;5.10;99.90;;;;;;4994908;28;20216;-51
2023/01/27 05:20:11;;;;;;;14.88;6.88;;;5.10;99.90;;;;;;4994918;28;20185;-51
2023/01/27 05:22:36;;;;;;;7.63;6.00;;;5.10;99.90;;;;;;4994741;28;20263;-55
2023/01/27 05:25:02;;;;;;;10.70;6.38;;;5.00;99.90;;;;;;4994869;28;20228;-53
2023/01/27 05:27:28;;;;;;;7.80;6.38;;;5.10;99.90;;;;;;4994523;28;20271;-54
2023/01/27 05:29:53;;;;;;;10.60;6.43;;;5.00;99.90;;;;;;4994583;28;20188;-53
2023/01/27 05:32:19;;;;;;;11.52;7.15;;;5.00;99.90;;;;;;4994438;28;20176;-54
2023/01/27 05:34:44;;;;;;;15.30;7.43;;;5.00;99.90;;;;;;4993841;28;20205;-54
2023/01/27 05:37:10;;;;;;;11.73;6.53;;;5.00;99.90;;;;;;4994178;28;20207;-53
2023/01/27 05:39:36;;;;;;;10.63;6.28;;;5.00;99.90;;;;;;4994643;28;20188;-53
2023/01/27 05:42:02;;;;;;;13.38;6.55;;;5.00;99.90;;;;;;4994019;28;20195;-53
2023/01/27 05:44:27;;;;;;;10.52;6.15;;;4.90;99.90;;;;;;4994570;28;20178;-56
2023/01/27 05:46:53;;;;;;;11.43;6.30;;;5.00;99.90;;;;;;4994330;28;20183;-54
2023/01/27 05:49:19;;;;;;;7.93;4.65;;;4.90;99.90;;;;;;4994036;28;20179;-52
2023/01/27 05:51:44;;;;;;;10.35;6.30;;;5.00;99.90;;;;;;4994248;28;20200;-53
2023/01/27 05:54:10;;;;;;;9.60;6.57;;;4.90;99.90;;;;;;4994528;28;20180;-53
2023/01/27 05:56:36;;;;;;;7.53;6.28;;;4.90;99.90;;;;;;4994407;28;20243;-55
2023/01/27 05:59:01;;;;;;;11.15;6.70;;;4.90;99.90;;;;;;4994163;28;20569;-53
2023/01/27 06:01:32;;;;;;;12.65;7.43;;;4.90;99.90;;;;;;4994131;28;20180;-54
2023/01/27 06:03:58;;;;;;;13.27;7.22;;;4.80;99.90;;;;;;4994049;28;20191;-54
2023/01/27 06:06:25;;;;;;;10.27;6.20;;;4.90;99.90;;;;;;4993747;28;20255;-53
2023/01/27 06:08:52;;;;;;;8.50;6.40;;;4.80;99.90;;;;;;4994339;28;20247;-52
2023/01/27 06:11:19;;;;;;;8.65;6.07;;;4.70;99.90;;;;;;4994260;28;20268;-54
2023/01/27 06:13:46;;;;;;;9.15;6.53;;;4.60;99.90;;;;;;4994018;28;20177;-53
2023/01/27 06:16:18;;;;;;;10.80;6.65;;;4.60;99.90;;;;;;4994099;28;20177;-54
2023/01/27 06:18:45;;;;;;;11.43;7.03;;;4.60;99.90;;;;;;4993830;28;20218;-54
2023/01/27 06:21:12;;;;;;;11.32;7.22;;;4.60;99.90;;;;;;4993963;28;20618;-55
2023/01/27 06:23:38;;;;;;;9.93;6.70;;;4.60;99.90;;;;;;4994065;28;20246;-53
2023/01/27 06:26:08;;;;;;;15.07;10.35;;;4.50;99.90;;;;;;4994048;28;20184;-51
2023/01/27 06:28:34;;;;;;;11.25;8.02;;;4.50;99.90;;;;;;4993861;28;20181;-54
2023/01/27 06:31:11;;;;;;;11.45;7.88;;;4.50;99.90;;;;;;4993890;28;20172;-52
2023/01/27 06:33:38;;;;;;;13.45;7.93;;;4.50;99.90;;;;;;4993785;28;20172;-52
2023/01/27 06:36:06;;;;;;;12.35;8.48;;;4.50;99.90;;;;;;4993883;28;20195;-54
2023/01/27 06:38:33;;;;;;;15.05;9.30;;;4.50;99.90;;;;;;4993786;28;20212;-52
2023/01/27 06:40:59;;;;;;;13.07;9.13;;;4.50;99.90;;;;;;4993758;28;20207;-51
2023/01/27 06:43:25;;;;;;;14.20;8.93;;;4.50;99.90;;;;;;4993750;28;20574;-54
2023/01/27 06:45:51;;;;;;;13.20;8.43;;;4.50;99.90;;;;;;4994975;28;20192;-53
2023/01/27 06:48:17;;;;;;;12.40;8.80;;;4.40;99.90;;;;;;4997668;28;20187;-56
2023/01/27 06:50:43;;;;;;;11.55;8.50;;;4.50;99.90;;;;;;4997776;28;20553;-54
2023/01/27 06:53:09;;;;;;;13.02;8.57;;;4.60;99.90;;;;;;4997764;28;20181;-54
2023/01/27 06:55:43;;;;;;;12.10;10.75;;;4.50;99.90;;;;;;4997608;28;20173;-51
2023/01/27 06:58:13;;;;;;;13.63;8.65;;;4.50;99.90;;;;;;4997580;28;20222;-53
2023/01/27 07:00:40;;;;;;;12.85;9.38;;;4.40;99.90;;;;;;4997410;28;20664;-51
2023/01/27 07:03:09;;;;;;;13.07;9.33;;;4.50;99.90;;;;;;4997273;28;20181;-54
2023/01/27 07:05:34;;;;;;;11.98;8.77;;;4.50;99.90;;;;;;4996204;28;20180;-52
2023/01/27 07:08:00;;;;;;;15.32;9.57;;;4.50;99.90;;;;;;4997375;28;20196;-54
2023/01/27 07:10:26;;;;;;;16.08;10.20;;;4.50;99.90;;;;;;4997329;28;20207;-53
2023/01/27 07:12:52;;;;;;;14.65;10.98;;;4.50;99.90;;;;;;4997206;28;20180;-53
2023/01/27 07:15:18;;;;;;;17.40;10.45;;;4.60;99.90;;;;;;4997099;28;20545;-55
2023/01/27 07:17:43;;;;;;;14.98;11.73;;;4.50;99.90;;;;;;4997298;28;20213;-54
2023/01/27 07:20:12;;;;;;;15.50;11.77;;;4.60;99.90;;;;;;4997341;28;20282;-54
2023/01/27 07:22:38;;;;;;;15.73;10.88;;;4.60;99.90;;;;;;4997265;28;20526;-53
2023/01/27 07:25:05;;;;;;;17.67;11.85;;;4.60;99.90;;;;;;4996768;28;20200;-52
2023/01/27 07:27:31;;;;;;;16.95;11.57;;;4.60;99.90;;;;;;4996874;28;20268;-54
2023/01/27 07:29:57;;;;;;;16.90;11.68;;;4.60;99.90;;;;;;4996900;28;20263;-53
2023/01/27 07:32:22;;;;;;;19.63;12.52;;;4.60;99.90;;;;;;4997183;28;20553;-52
2023/01/27 07:34:48;;;;;;;16.67;11.85;;;4.70;99.90;;;;;;4996898;28;20181;-51
2023/01/27 07:37:14;;;;;;;15.52;13.85;;;4.70;99.90;;;;;;4996852;28;20243;-51
2023/01/27 07:39:39;;;;;;;18.77;12.32;;;4.80;99.90;;;;;;4996815;28;20630;-54
2023/01/27 07:42:06;;;;;;;20.25;12.43;;;4.70;99.90;;;;;;4996681;28;20181;-55
2023/01/27 07:44:32;;;;;;;21.95;16.83;;;4.70;99.90;;;;;;4996529;28;20263;-53
2023/01/27 07:46:58;;;;;;;17.65;13.75;;;4.60;99.90;;;;;;4996778;28;20180;-53
2023/01/27 07:49:23;;;;;;;16.33;12.73;;;4.60;99.90;;;;;;4996681;28;20176;-52
2023/01/27 07:51:50;;;;;;;13.07;10.40;;;4.60;99.90;;;;;;4996653;28;20180;-54
2023/01/27 07:54:16;;;;;;;18.10;11.27;;;4.60;99.90;;;;;;4996474;28;20602;-54
2023/01/27 07:56:41;;;;;;;14.05;12.65;;;4.60;99.90;;;;;;4996144;28;20200;-54
2023/01/27 07:59:09;;;;;;;15.77;10.60;;;4.60;99.90;;;;;;4996339;28;20193;-54
2023/01/27 08:01:36;;;;;;;14.93;13.50;;;4.70;99.90;;;;;;4996584;28;20184;-51
2023/01/27 08:04:02;;;;;;;16.50;11.95;;;4.70;99.90;;;;;;4996416;28;20181;-53
2023/01/27 08:06:27;;;;;;;14.45;13.00;;;4.80;99.90;;;;;;4996430;28;20282;-54
2023/01/27 08:08:53;;;;;;;16.38;11.23;;;5.00;99.90;;;;;;4996267;28;20181;-54
2023/01/27 08:11:19;;;;;;;14.15;10.70;;;4.90;99.90;;;;;;4996098;28;20542;-53
2023/01/27 08:13:44;;;;;;;16.35;10.73;;;4.80;99.90;;;;;;4995974;28;20180;-53
2023/01/27 08:16:12;;;;;;;14.75;10.68;;;4.80;99.90;;;;;;4996176;28;20184;-52
2023/01/27 08:18:38;;;;;;;14.98;10.32;;;4.80;99.90;;;;;;4996105;28;20216;-53
2023/01/27 08:21:06;;;;;;;13.18;11.05;;;4.80;99.90;;;;;;4995989;28;20319;-54
2023/01/27 08:23:32;;;;;;;18.65;15.35;;;4.80;99.90;;;;;;4996025;28;20208;-52
2023/01/27 08:26:00;;;;;;;13.07;10.60;;;4.90;99.90;;;;;;4995907;28;20184;-54
2023/01/27 08:28:28;;;;;;;15.10;11.48;;;4.80;99.90;;;;;;4996355;28;20187;-54
2023/01/27 08:31:01;;;;;;;13.77;9.82;;;4.70;99.90;;;;;;4995941;28;20177;-53
2023/01/27 08:33:27;;;;;;;16.35;10.00;;;4.80;99.90;;;;;;4995902;28;20225;-53
2023/01/27 08:35:52;;;;;;;13.88;10.32;;;4.80;99.90;;;;;;4995783;28;20188;-53
2023/01/27 08:38:19;;;;;;;13.63;9.68;;;4.80;99.90;;;;;;4995655;28;20217;-54
2023/01/27 08:40:46;;;;;;;11.00;8.57;;;5.00;99.90;;;;;;4995540;28;20173;-54
2023/01/27 08:43:15;;;;;;;11.70;8.95;;;5.10;99.90;;;;;;4995813;28;20204;-54
2023/01/27 08:45:41;;;;;;;14.57;10.10;;;5.10;99.90;;;;;;4995719;28;20187;-54
2023/01/27 08:48:07;;;;;;;12.02;9.27;;;5.00;99.90;;;;;;4995638;28;20263;-53
2023/01/27 08:50:33;;;;;;;15.02;9.25;;;5.00;99.90;;;;;;4995562;28;20625;-53
2023/01/27 08:53:00;;;;;;;17.85;15.93;;;5.10;99.90;;;;;;4995395;28;20581;-53
2023/01/27 08:55:30;;;;;;;11.23;9.68;;;5.10;99.90;;;;;;4995305;28;20173;-54
2023/01/27 08:57:56;;;;;;;10.73;9.63;;;5.10;99.90;;;;;;4995487;28;20212;-54
2023/01/27 09:00:22;;;;;;;11.35;9.43;;;5.10;99.90;;;;;;4995333;28;20186;-54
2023/01/27 09:02:49;;;;;;;12.25;8.93;;;5.10;99.90;;;;;;4995549;28;20180;-54
2023/01/27 09:05:16;;;;;;;9.45;8.13;;;5.00;99.90;;;;;;4995123;28;20187;-52
2023/01/27 09:07:42;;;;;;;9.82;8.48;;;5.10;99.90;;;;;;4994838;28;20189;-52
2023/01/27 09:10:09;;;;;;;9.73;8.32;;;5.10;99.90;;;;;;4994713;28;20177;-54
2023/01/27 09:12:34;;;;;;;10.52;8.43;;;5.10;99.90;;;;;;4995485;28;20529;-51
2023/01/27 09:15:00;;;;;;;9.40;7.60;;;5.20;99.90;;;;;;4995210;28;20185;-54
2023/01/27 09:17:26;;;;;;;12.73;8.82;;;5.20;99.90;;;;;;4994986;28;20263;-53
2023/01/27 09:19:52;;;;;;;10.18;8.45;;;5.10;99.90;;;;;;4995001;28;20178;-54
2023/01/27 09:22:18;;;;;;;18.35;15.18;;;5.10;99.90;;;;;;4994888;28;20527;-54
2023/01/27 09:24:44;;;;;;;13.20;8.38;;;5.20;99.90;;;;;;4993458;28;20208;-54
2023/01/27 09:27:09;;;;;;;12.27;8.73;;;5.20;99.90;;;;;;4994938;28;20642;-54
2023/01/27 09:29:35;;;;;;;9.65;7.85;;;5.30;99.90;;;;;;4994919;28;20192;-54
2023/01/27 09:32:04;;;;;;;9.65;8.23;;;5.40;99.90;;;;;;4994708;28;20646;-53
2023/01/27 09:34:30;;;;;;;10.77;8.18;;;5.50;99.90;;;;;;4994697;28;20180;-55
2023/01/27 09:37:09;;;;;;;9.27;7.05;;;5.40;99.90;;;;;;4994468;28;20180;-54
2023/01/27 09:39:39;;;;;;;10.50;8.07;;;5.40;99.90;;;;;;4994738;28;20176;-55
2023/01/27 09:42:15;;;;;;;11.02;6.97;;;5.40;99.90;;;;;;4994423;28;20176;-57
2023/01/27 09:45:02;;;;;;;9.32;7.05;;;5.50;99.90;;;;;;4994656;28;20172;-55
2023/01/27 09:47:40;;;;;;;8.45;7.20;;;5.40;99.90;;;;;;4994448;28;20182;-55
2023/01/27 09:50:28;;;;;;;7.97;6.82;;;5.50;99.90;;;;;;4994586;28;20176;-54
2023/01/27 09:53:25;;;;;;;8.23;6.57;;;5.70;99.90;;;;;;4994356;28;20231;-54
2023/01/27 09:56:09;;;;;;;8.80;6.25;;;5.80;99.90;;;;;;4994309;28;20230;-51
2023/01/27 09:58:59;;;;;;;7.70;6.05;;;5.80;99.90;;;;;;4994336;28;20215;-51
2023/01/27 10:01:53;;;;;;;6.93;6.22;;;5.60;99.90;;;;;;4994282;28;20181;-51
2023/01/27 10:04:28;;;;;;;6.22;5.20;;;5.60;99.90;;;;;;4994159;28;20686;-53
2023/01/27 10:07:31;;;;;;;5.55;4.65;;;5.80;99.90;;;;;;4994263;28;20180;-54
2023/01/27 10:10:15;;;;;;;5.05;4.55;;;5.90;99.90;;;;;;4994386;28;20260;-54
2023/01/27 10:12:55;;;;;;;7.43;5.70;;;5.90;99.90;;;;;;4994239;28;20180;-53
2023/01/27 10:15:39;;;;;;;4.80;3.83;;;5.80;99.90;;;;;;4994142;28;20184;-54
2023/01/27 10:18:22;;;;;;;4.50;3.90;;;5.80;99.90;;;;;;4993882;28;20215;-56
2023/01/27 10:20:59;;;;;;;5.25;4.13;;;5.80;99.90;;;;;;4993885;28;20176;-50
2023/01/27 10:24:08;;;;;;;4.80;4.30;;;5.90;99.90;;;;;;4993921;28;20188;-51
2023/01/27 10:26:58;;;;;;;3.72;3.40;;;5.90;99.90;;;;;;4993989;28;20181;-51
2023/01/27 10:29:45;;;;;;;4.25;3.85;;;5.80;99.90;;;;;;4993830;28;20617;-52
2023/01/27 10:32:25;;;;;;;3.58;3.13;;;5.80;99.90;;;;;;4994032;28;20215;-52
2023/01/27 10:34:57;;;;;;;4.32;3.78;;;5.80;99.90;;;;;;4993914;28;20227;-53
2023/01/27 10:37:22;;;;;;;4.22;3.40;;;5.70;99.90;;;;;;4993665;28;20212;-53
2023/01/27 10:40:10;;;;;;;5.22;4.15;;;5.70;99.90;;;;;;4993717;28;20187;-52
2023/01/27 10:42:48;;;;;;;4.07;3.70;;;5.70;99.90;;;;;;4992767;28;20234;-52
2023/01/27 10:45:36;;;;;;;4.85;4.20;;;5.70;99.90;;;;;;4993866;28;20203;-53
2023/01/27 10:48:37;;;;;;;3.95;3.55;;;5.60;99.90;;;;;;4993770;28;20207;-53
2023/01/27 10:51:24;;;;;;;4.35;3.92;;;5.50;99.90;;;;;;4993639;28;20175;-54
2023/01/27 10:54:01;;;;;;;3.97;3.60;;;5.50;99.90;;;;;;4993720;28;20708;-54
2023/01/27 10:56:43;;;;;;;6.22;4.25;;;5.50;99.90;;;;;;4994126;28;20164;-54
2023/01/27 10:59:36;;;;;;;4.90;4.40;;;5.60;99.90;;;;;;4993926;28;20303;-55
2023/01/27 11:02:08;;;;;;;5.13;4.63;;;5.60;99.90;;;;;;4993560;28;20546;-54
2023/01/27 11:05:04;;;;;;;5.85;4.65;;;5.70;99.90;;;;;;4993614;28;20219;-55
2023/01/27 11:07:32;;;;;;;5.07;4.57;;;5.80;99.90;;;;;;4993796;28;20208;-55
2023/01/27 11:09:59;;;;;;;7.28;5.70;;;5.80;99.90;;;;;;4993685;28;20173;-53
2023/01/27 11:12:33;;;;;;;7.00;5.65;;;5.70;99.90;;;;;;4993558;28;20185;-51
2023/01/27 11:15:08;;;;;;;7.40;6.35;;;5.60;99.90;;;;;;4992328;28;20227;-54
2023/01/27 11:17:47;;;;;;;5.80;5.20;;;5.70;99.90;;;;;;4993632;28;20215;-53
2023/01/27 11:20:16;;;;;;;7.88;6.32;;;5.70;99.90;;;;;;4993545;28;20227;-55
2023/01/27 11:23:03;;;;;;;10.43;7.32;;;5.70;99.90;;;;;;4993391;28;20689;-54
2023/01/27 11:25:45;;;;;;;6.82;6.07;;;5.70;99.90;;;;;;4993751;28;20224;-53
2023/01/27 11:28:30;;;;;;;5.78;4.35;;;5.70;99.90;;;;;;4993664;28;20177;-55
2023/01/27 11:31:20;;;;;;;5.82;4.55;;;5.70;99.90;;;;;;4993423;28;20700;-52
2023/01/27 11:34:05;;;;;;;4.07;3.75;;;5.70;99.90;;;;;;4996723;28;20185;-55
2023/01/27 11:36:32;;;;;;;4.03;3.60;;;5.70;99.90;;;;;;4997072;28;20260;-55
2023/01/27 11:39:00;;;;;;;3.75;3.20;;;5.60;99.90;;;;;;4996808;28;20216;-55
2023/01/27 11:41:26;;;;;;;2.78;2.58;;;5.60;99.90;;;;;;4996793;28;20182;-55
2023/01/27 11:43:52;;;;;;;2.70;2.50;;;5.50;99.90;;;;;;4996799;28;20585;-52
2023/01/27 11:46:22;;;;;;;2.92;2.70;;;5.50;99.90;;;;;;4996598;28;20192;-52
2023/01/27 11:48:54;;;;;;;2.97;2.70;;;5.40;99.90;;;;;;4996957;28;20180;-53
2023/01/27 11:51:23;;;;;;;2.90;2.60;;;5.50;99.90;;;;;;4996598;28;20212;-54
2023/01/27 11:54:07;;;;;;;3.22;2.92;;;5.50;99.90;;;;;;4996676;28;20172;-55
2023/01/27 11:56:35;;;;;;;3.55;3.22;;;5.60;99.90;;;;;;4996484;28;20185;-54
2023/01/27 11:59:21;;;;;;;3.97;3.22;;;5.60;99.90;;;;;;4996396;28;20239;-53
2023/01/27 12:02:16;;;;;;;4.15;3.67;;;5.60;99.90;;;;;;4996511;28;20575;-52
2023/01/27 12:04:57;;;;;;;3.40;3.10;;;5.60;99.90;;;;;;4996419;28;20173;-57
2023/01/27 12:07:58;;;;;;;5.15;3.80;;;5.80;99.90;;;;;;4996245;28;20184;-53
2023/01/27 12:10:28;;;;;;;5.55;5.05;;;6.00;99.90;;;;;;4984143;28;20196;-55
2023/01/27 12:12:55;;;;;;;4.25;3.63;;;6.00;99.90;;;;;;4994935;28;20180;-54
2023/01/27 12:15:23;;;;;;;4.50;3.85;;;6.20;99.90;;;;;;4996099;28;20180;-54
2023/01/27 12:18:02;;;;;;;4.13;3.72;;;6.20;99.90;;;;;;4996446;28;20209;-53
2023/01/27 12:20:38;;;;;;;5.60;3.47;;;6.20;99.90;;;;;;4996307;28;20180;-51
2023/01/27 12:23:30;;;;;;;4.10;2.80;;;6.20;99.90;;;;;;4996033;28;20185;-55
2023/01/27 12:26:02;;;;;;;3.30;3.03;;;6.00;99.90;;;;;;4995949;28;20605;-54
2023/01/27 12:28:40;;;;;;;4.07;3.13;;;6.00;99.90;;;;;;4995922;28;20188;-55
2023/01/27 12:31:10;;;;;;;3.40;3.10;;;6.10;99.90;;;;;;4996085;28;20176;-54
2023/01/27 12:33:39;;;;;;;4.65;4.25;;;6.10;99.90;;;;;;4995849;28;20173;-52
2023/01/27 12:36:15;;;;;;;4.60;3.00;;;6.30;99.90;;;;;;4995727;28;20218;-56
2023/01/27 12:38:49;;;;;;;3.75;3.35;;;6.10;99.90;;;;;;4995517;28;20216;-55
2023/01/27 12:41:30;;;;;;;4.53;4.13;;;6.00;99.90;;;;;;4995908;28;20176;-55
2023/01/27 12:44:17;;;;;;;3.25;3.05;;;5.90;99.90;;;;;;4994709;28;20172;-57
2023/01/27 12:46:58;;;;;;;3.75;3.38;;;5.70;99.90;;;;;;4995474;28;20176;-55
2023/01/27 12:49:33;;;;;;;4.60;3.38;;;5.70;99.90;;;;;;4995708;28;20278;-50
2023/01/27 12:52:03;;;;;;;4.32;3.97;;;5.70;99.90;;;;;;4995582;28;20271;-55
2023/01/27 12:54:31;;;;;;;3.92;3.53;;;5.70;99.90;;;;;;4995455;28;20169;-55
2023/01/27 12:57:03;;;;;;;4.65;3.78;;;5.70;99.90;;;;;;4995323;28;20180;-54
2023/01/27 12:59:29;;;;;;;4.93;3.80;;;5.70;99.90;;;;;;4995417;28;20191;-54
2023/01/27 13:02:14;;;;;;;5.15;4.00;;;5.70;99.90;;;;;;4995510;28;20179;-55
2023/01/27 13:04:41;;;;;;;4.55;4.15;;;5.80;99.90;;;;;;4995290;28;20256;-54
2023/01/27 13:07:14;;;;;;;4.82;4.43;;;5.90;99.90;;;;;;4995473;28;20174;-54
2023/01/27 13:09:59;;;;;;;5.90;5.38;;;5.80;99.90;;;;;;4995234;28;20590;-55
2023/01/27 13:12:31;;;;;;;5.32;4.82;;;5.80;99.90;;;;;;4995347;28;20515;-52
2023/01/27 13:15:08;;;;;;;5.15;4.22;;;5.70;99.90;;;;;;4995045;28;20184;-52
2023/01/27 13:17:36;;;;;;;5.90;4.60;;;5.70;99.90;;;;;;4994933;28;20752;-55
2023/01/27 13:20:25;;;;;;;4.88;3.92;;;5.70;99.90;;;;;;4994938;28;20184;-54
2023/01/27 13:23:06;;;;;;;5.82;4.63;;;5.60;99.90;;;;;;4978044;28;20291;-54
2023/01/27 13:25:48;;;;;;;5.07;3.80;;;5.60;99.90;;;;;;4995023;28;20196;-55
2023/01/27 13:28:21;;;;;;;5.15;4.57;;;5.70;99.90;;;;;;4994959;28;20240;-54
2023/01/27 13:30:51;;;;;;;5.65;4.55;;;5.60;99.90;;;;;;4994735;28;20534;-55
2023/01/27 13:33:23;;;;;;;6.07;4.22;;;5.40;99.90;;;;;;4994833;28;20256;-57
2023/01/27 13:36:14;;;;;;;4.95;4.53;;;5.50;99.90;;;;;;4994784;28;20204;-54
2023/01/27 13:38:49;;;;;;;5.10;4.55;;;5.50;99.90;;;;;;4994649;28;20553;-51
2023/01/27 13:41:24;;;;;;;6.15;4.32;;;5.70;99.90;;;;;;4994808;28;20533;-53
2023/01/27 13:44:02;;;;;;;6.75;6.15;;;5.60;99.90;;;;;;4994747;28;20179;-53